sensor_id;sensor_type;location;lat;lon;timestamp;pressure;altitude;pressure_sealevel;temperature
1532;BMP280;759;53.170;8.210;2023-01-24T00:00:26;102757.34;;;3.03
1532;BMP280;759;53.170;8.210;2023-01-24T00:02:51;102750.69;;;3.05
1532;BMP280;759;53.170;8.210;2023-01-24T00:05:16;102759.69;;;3.04
1532;BMP280;759;53.170;8.210;2023-01-24T00:07:41;102754.97;;;3.01
1532;BMP280;759;53.170;8.210;2023-01-24T00:10:07;102749.94;;;3.00
1532;BMP280;759;53.170;8.210;2023-01-24T00:12:34;102751.22;;;3.02
1532;BMP280;759;53.170;8.210;2023-01-24T00:15:00;102744.44;;;2.96
1532;BMP280;759;53.170;8.210;2023-01-24T00:17:25;102743.41;;;2.97
1532;BMP280;759;53.170;8.210;2023-01-24T00:19:50;102738.66;;;2.94
1532;BMP280;759;53.170;8.210;2023-01-24T00:22:15;102739.63;;;2.98
1532;BMP280;759;53.170;8.210;2023-01-24T00:24:40;102735.38;;;3.02
1532;BMP280;759;53.170;8.210;2023-01-24T00:27:06;102734.06;;;3.00
1532;BMP280;759;53.170;8.210;2023-01-24T00:29:31;102739.63;;;2.98
1532;BMP280;759;53.170;8.210;2023-01-24T00:31:56;102739.63;;;2.98
1532;BMP280;759;53.170;8.210;2023-01-24T00:34:21;102724.88;;;2.97
1532;BMP280;759;53.170;8.210;2023-01-24T00:36:46;102716.47;;;2.90
1532;BMP280;759;53.170;8.210;2023-01-24T00:39:12;102726.84;;;2.86
1532;BMP280;759;53.170;8.210;2023-01-24T00:41:37;102730.22;;;2.92
1532;BMP280;759;53.170;8.210;2023-01-24T00:44:02;102717.25;;;2.90
1532;BMP280;759;53.170;8.210;2023-01-24T00:46:27;102711.19;;;2.90
1532;BMP280;759;53.170;8.210;2023-01-24T00:48:52;102708.47;;;2.95
1532;BMP280;759;53.170;8.210;2023-01-24T00:51:18;102720.66;;;2.96
1532;BMP280;759;53.170;8.210;2023-01-24T00:53:43;102713.78;;;2.95
1532;BMP280;759;53.170;8.210;2023-01-24T00:56:08;102717.00;;;2.92
1532;BMP280;759;53.170;8.210;2023-01-24T00:58:33;102712.22;;;2.94
1532;BMP280;759;53.170;8.210;2023-01-24T01:00:59;102721.13;;;2.98
1532;BMP280;759;53.170;8.210;2023-01-24T01:03:25;102716.63;;;2.98
1532;BMP280;759;53.170;8.210;2023-01-24T01:05:56;102712.22;;;2.94
1532;BMP280;759;53.170;8.210;2023-01-24T01:08:21;102712.41;;;2.97
1532;BMP280;759;53.170;8.210;2023-01-24T01:10:46;102699.03;;;2.89
1532;BMP280;759;53.170;8.210;2023-01-24T01:13:12;102704.56;;;2.92
1532;BMP280;759;53.170;8.210;2023-01-24T01:15:37;102709.78;;;2.97
1532;BMP280;759;53.170;8.210;2023-01-24T01:18:03;102717.22;;;2.95
1532;BMP280;759;53.170;8.210;2023-01-24T01:20:28;102711.66;;;2.97
1532;BMP280;759;53.170;8.210;2023-01-24T01:22:53;102710.53;;;2.98
1532;BMP280;759;53.170;8.210;2023-01-24T01:25:18;102716.94;;;2.97
1532;BMP280;759;53.170;8.210;2023-01-24T01:27:43;102712.91;;;3.00
1532;BMP280;759;53.170;8.210;2023-01-24T01:30:09;102721.63;;;3.00
1532;BMP280;759;53.170;8.210;2023-01-24T01:32:34;102724.28;;;3.00
1532;BMP280;759;53.170;8.210;2023-01-24T01:34:59;102719.25;;;2.98
1532;BMP280;759;53.170;8.210;2023-01-24T01:37:25;102725.88;;;3.01
1532;BMP280;759;53.170;8.210;2023-01-24T01:39:50;102727.94;;;3.04
1532;BMP280;759;53.170;8.210;2023-01-24T01:42:15;102732.44;;;3.04
1532;BMP280;759;53.170;8.210;2023-01-24T01:44:41;102735.38;;;3.02
1532;BMP280;759;53.170;8.210;2023-01-24T01:49:59;102743.81;;;3.04
1532;BMP280;759;53.170;8.210;2023-01-24T01:52:26;102732.72;;;3.02
1532;BMP280;759;53.170;8.210;2023-01-24T01:54:53;102734.03;;;3.05
1532;BMP280;759;53.170;8.210;2023-01-24T01:57:21;102736.19;;;3.03
1532;BMP280;759;53.170;8.210;2023-01-24T01:59:48;102728.50;;;3.01
1532;BMP280;759;53.170;8.210;2023-01-24T02:02:14;102735.38;;;3.02
1532;BMP280;759;53.170;8.210;2023-01-24T02:04:41;102744.91;;;3.03
1532;BMP280;759;53.170;8.210;2023-01-24T02:07:10;102755.50;;;2.98
1532;BMP280;759;53.170;8.210;2023-01-24T02:09:47;102754.97;;;3.01
1532;BMP280;759;53.170;8.210;2023-01-24T02:12:13;102753.38;;;3.00
1532;BMP280;759;53.170;8.210;2023-01-24T02:14:40;102760.69;;;3.08
1532;BMP280;759;53.170;8.210;2023-01-24T02:17:24;102772.41;;;3.02
1532;BMP280;759;53.170;8.210;2023-01-24T02:19:52;102772.91;;;3.04
1532;BMP280;759;53.170;8.210;2023-01-24T02:22:34;102782.44;;;3.05
1532;BMP280;759;53.170;8.210;2023-01-24T02:25:07;102777.16;;;3.05
1532;BMP280;759;53.170;8.210;2023-01-24T02:27:34;102776.34;;;3.05
1532;BMP280;759;53.170;8.210;2023-01-24T02:30:00;102779.50;;;3.07
1532;BMP280;759;53.170;8.210;2023-01-24T02:32:25;102786.63;;;3.06
1532;BMP280;759;53.170;8.210;2023-01-24T02:34:50;102793.00;;;3.05
1532;BMP280;759;53.170;8.210;2023-01-24T02:37:16;102797.53;;;3.05
1532;BMP280;759;53.170;8.210;2023-01-24T02:39:45;102806.78;;;3.02
1532;BMP280;759;53.170;8.210;2023-01-24T02:42:13;102802.81;;;3.05
1532;BMP280;759;53.170;8.210;2023-01-24T02:47:31;102810.69;;;3.10
1532;BMP280;759;53.170;8.210;2023-01-24T02:49:59;102805.66;;;3.08
1532;BMP280;759;53.170;8.210;2023-01-24T02:52:25;102823.16;;;3.04
1532;BMP280;759;53.170;8.210;2023-01-24T02:55:09;102820.81;;;3.03
1532;BMP280;759;53.170;8.210;2023-01-24T02:57:34;102818.19;;;3.03
1532;BMP280;759;53.170;8.210;2023-01-24T03:00:17;102817.34;;;3.07
1532;BMP280;759;53.170;8.210;2023-01-24T03:02:43;102820.25;;;3.06
1532;BMP280;759;53.170;8.210;2023-01-24T03:05:08;102820.25;;;3.06
1532;BMP280;759;53.170;8.210;2023-01-24T03:07:33;102812.03;;;3.07
1532;BMP280;759;53.170;8.210;2023-01-24T03:10:09;102817.34;;;3.07
1532;BMP280;759;53.170;8.210;2023-01-24T03:12:34;102808.84;;;3.10
1532;BMP280;759;53.170;8.210;2023-01-24T03:15:18;102808.53;;;3.12
1532;BMP280;759;53.170;8.210;2023-01-24T03:18:02;102810.97;;;3.08
1532;BMP280;759;53.170;8.210;2023-01-24T03:20:47;102811.19;;;3.12
1532;BMP280;759;53.170;8.210;2023-01-24T03:23:30;102823.38;;;3.13
1532;BMP280;759;53.170;8.210;2023-01-24T03:26:14;102826.00;;;3.13
1532;BMP280;759;53.170;8.210;2023-01-24T03:28:58;102828.41;;;3.09
1532;BMP280;759;53.170;8.210;2023-01-24T03:31:42;102837.94;;;3.10
1532;BMP280;759;53.170;8.210;2023-01-24T03:34:26;102841.09;;;3.12
1532;BMP280;759;53.170;8.210;2023-01-24T03:37:01;102834.69;;;3.18
1532;BMP280;759;53.170;8.210;2023-01-24T03:39:26;102845.78;;;3.21
1532;BMP280;759;53.170;8.210;2023-01-24T03:42:10;102842.66;;;3.13
1532;BMP280;759;53.170;8.210;2023-01-24T03:44:35;102841.09;;;3.12
1532;BMP280;759;53.170;8.210;2023-01-24T03:47:00;102840.53;;;3.15
1532;BMP280;759;53.170;8.210;2023-01-24T03:49:26;102834.44;;;3.15
1532;BMP280;759;53.170;8.210;2023-01-24T03:52:10;102835.25;;;3.15
1532;BMP280;759;53.170;8.210;2023-01-24T03:54:52;102838.97;;;3.14
1532;BMP280;759;53.170;8.210;2023-01-24T03:57:17;102837.88;;;3.15
1532;BMP280;759;53.170;8.210;2023-01-24T03:59:42;102844.25;;;3.14
1532;BMP280;759;53.170;8.210;2023-01-24T04:02:07;102848.19;;;3.17
1532;BMP280;759;53.170;8.210;2023-01-24T04:04:32;102851.34;;;3.19
1532;BMP280;759;53.170;8.210;2023-01-24T04:07:18;102865.16;;;3.16
1532;BMP280;759;53.170;8.210;2023-01-24T04:09:44;102858.22;;;3.20
1532;BMP280;759;53.170;8.210;2023-01-24T04:12:09;102863.78;;;3.18
1532;BMP280;759;53.170;8.210;2023-01-24T04:14:34;102865.94;;;3.16
1532;BMP280;759;53.170;8.210;2023-01-24T04:16:59;102864.06;;;3.17
1532;BMP280;759;53.170;8.210;2023-01-24T04:19:24;102864.41;;;3.10
1532;BMP280;759;53.170;8.210;2023-01-24T04:21:49;102858.81;;;3.12
1532;BMP280;759;53.170;8.210;2023-01-24T04:24:15;102853.81;;;3.10
1532;BMP280;759;53.170;8.210;2023-01-24T04:26:40;102855.38;;;3.11
1532;BMP280;759;53.170;8.210;2023-01-24T04:29:05;102859.31;;;3.14
1532;BMP280;759;53.170;8.210;2023-01-24T04:31:30;102869.13;;;3.13
1532;BMP280;759;53.170;8.210;2023-01-24T04:33:55;102859.31;;;3.14
1532;BMP280;759;53.170;8.210;2023-01-24T04:36:20;102865.69;;;3.13
1532;BMP280;759;53.170;8.210;2023-01-24T04:38:46;102869.13;;;3.13
1532;BMP280;759;53.170;8.210;2023-01-24T04:41:11;102863.31;;;3.11
1532;BMP280;759;53.170;8.210;2023-01-24T04:43:39;102853.81;;;3.10
1532;BMP280;759;53.170;8.210;2023-01-24T04:46:04;102863.84;;;3.13
1532;BMP280;759;53.170;8.210;2023-01-24T04:48:29;102861.69;;;3.15
1532;BMP280;759;53.170;8.210;2023-01-24T04:50:58;102865.44;;;3.14
1532;BMP280;759;53.170;8.210;2023-01-24T04:53:24;102865.69;;;3.13
1532;BMP280;759;53.170;8.210;2023-01-24T04:55:49;102864.91;;;3.12
1532;BMP280;759;53.170;8.210;2023-01-24T04:58:14;102856.97;;;3.12
1532;BMP280;759;53.170;8.210;2023-01-24T05:00:39;102858.00;;;3.16
1532;BMP280;759;53.170;8.210;2023-01-24T05:03:04;102851.13;;;3.15
1532;BMP280;759;53.170;8.210;2023-01-24T05:05:30;102844.75;;;3.16
1532;BMP280;759;53.170;8.210;2023-01-24T05:07:55;102851.13;;;3.15
1532;BMP280;759;53.170;8.210;2023-01-24T05:10:20;102848.00;;;3.08
1532;BMP280;759;53.170;8.210;2023-01-24T05:12:48;102846.66;;;3.11
1532;BMP280;759;53.170;8.210;2023-01-24T05:15:13;102848.22;;;3.12
1532;BMP280;759;53.170;8.210;2023-01-24T05:17:38;102853.81;;;3.10
1532;BMP280;759;53.170;8.210;2023-01-24T05:20:03;102849.06;;;3.07
1532;BMP280;759;53.170;8.210;2023-01-24T05:22:29;102843.25;;;3.10
1532;BMP280;759;53.170;8.210;2023-01-24T05:24:54;102844.53;;;3.13
1532;BMP280;759;53.170;8.210;2023-01-24T05:27:19;102846.94;;;3.09
1532;BMP280;759;53.170;8.210;2023-01-24T05:29:44;102850.09;;;3.11
1532;BMP280;759;53.170;8.210;2023-01-24T05:32:09;102850.09;;;3.11
1532;BMP280;759;53.170;8.210;2023-01-24T05:34:35;102853.34;;;3.03
1532;BMP280;759;53.170;8.210;2023-01-24T05:37:00;102856.47;;;3.10
1532;BMP280;759;53.170;8.210;2023-01-24T05:39:25;102858.06;;;3.06
1532;BMP280;759;53.170;8.210;2023-01-24T05:41:50;102864.94;;;3.07
1532;BMP280;759;53.170;8.210;2023-01-24T05:44:15;102860.19;;;3.04
1532;BMP280;759;53.170;8.210;2023-01-24T05:46:40;102864.94;;;3.07
1532;BMP280;759;53.170;8.210;2023-01-24T05:49:07;102879.75;;;3.08
1532;BMP280;759;53.170;8.210;2023-01-24T05:51:32;102871.28;;;3.06
1532;BMP280;759;53.170;8.210;2023-01-24T05:53:57;102870.25;;;3.07
1532;BMP280;759;53.170;8.210;2023-01-24T05:56:22;102874.44;;;3.08
1532;BMP280;759;53.170;8.210;2023-01-24T05:58:48;102872.09;;;3.07
1532;BMP280;759;53.170;8.210;2023-01-24T06:01:15;102868.72;;;3.01
1532;BMP280;759;53.170;8.210;2023-01-24T06:03:41;102869.75;;;3.00
1532;BMP280;759;53.170;8.210;2023-01-24T06:06:08;102868.44;;;3.03
1532;BMP280;759;53.170;8.210;2023-01-24T06:08:33;102863.41;;;3.01
1532;BMP280;759;53.170;8.210;2023-01-24T06:11:06;102868.66;;;3.06
1532;BMP280;759;53.170;8.210;2023-01-24T06:13:32;102872.91;;;3.02
1532;BMP280;759;53.170;8.210;2023-01-24T06:16:01;102872.91;;;3.02
1532;BMP280;759;53.170;8.210;2023-01-24T06:18:27;102867.13;;;3.00
1532;BMP280;759;53.170;8.210;2023-01-24T06:20:52;102875.84;;;3.01
1532;BMP280;759;53.170;8.210;2023-01-24T06:23:21;102873.47;;;2.99
1532;BMP280;759;53.170;8.210;2023-01-24T06:25:47;102868.19;;;2.99
1532;BMP280;759;53.170;8.210;2023-01-24T06:28:12;102870.34;;;2.97
1532;BMP280;759;53.170;8.210;2023-01-24T06:30:38;102868.19;;;2.99
1532;BMP280;759;53.170;8.210;2023-01-24T06:35:38;102869.56;;;2.96
1532;BMP280;759;53.170;8.210;2023-01-24T06:38:14;102867.72;;;2.97
1532;BMP280;759;53.170;8.210;2023-01-24T06:40:42;102871.41;;;2.96
1532;BMP280;759;53.170;8.210;2023-01-24T06:43:07;102878.56;;;2.95
1532;BMP280;759;53.170;8.210;2023-01-24T06:45:32;102872.75;;;2.93
1532;BMP280;759;53.170;8.210;2023-01-24T06:47:58;102875.91;;;2.95
1532;BMP280;759;53.170;8.210;2023-01-24T06:50:23;102885.19;;;2.93
1532;BMP280;759;53.170;8.210;2023-01-24T06:52:50;102882.53;;;2.93
1532;BMP280;759;53.170;8.210;2023-01-24T06:55:17;102886.25;;;2.92
1532;BMP280;759;53.170;8.210;2023-01-24T06:57:43;102886.25;;;2.92
1532;BMP280;759;53.170;8.210;2023-01-24T07:00:11;102888.13;;;2.91
1532;BMP280;759;53.170;8.210;2023-01-24T07:02:36;102892.91;;;2.89
1532;BMP280;759;53.170;8.210;2023-01-24T07:05:01;102883.63;;;2.87
1532;BMP280;759;53.170;8.210;2023-01-24T07:07:27;102888.91;;;2.92
1532;BMP280;759;53.170;8.210;2023-01-24T07:09:52;102897.34;;;2.94
1532;BMP280;759;53.170;8.210;2023-01-24T07:12:17;102899.47;;;2.92
1532;BMP280;759;53.170;8.210;2023-01-24T07:14:42;102902.63;;;2.94
1532;BMP280;759;53.170;8.210;2023-01-24T07:17:09;102907.94;;;2.94
1532;BMP280;759;53.170;8.210;2023-01-24T07:19:34;102913.22;;;2.94
1532;BMP280;759;53.170;8.210;2023-01-24T07:22:00;102904.66;;;3.02
1532;BMP280;759;53.170;8.210;2023-01-24T07:24:28;102910.47;;;3.04
1532;BMP280;759;53.170;8.210;2023-01-24T07:26:54;102913.44;;;2.97
1532;BMP280;759;53.170;8.210;2023-01-24T07:29:20;102900.50;;;2.96
1532;BMP280;759;53.170;8.210;2023-01-24T07:31:45;102908.91;;;2.98
1532;BMP280;759;53.170;8.210;2023-01-24T07:34:13;102917.97;;;2.97
1532;BMP280;759;53.170;8.210;2023-01-24T07:36:40;102920.00;;;3.00
1532;BMP280;759;53.170;8.210;2023-01-24T07:39:05;102926.34;;;3.04
1532;BMP280;759;53.170;8.210;2023-01-24T07:41:30;102927.94;;;3.00
1532;BMP280;759;53.170;8.210;2023-01-24T07:43:55;102925.03;;;3.02
1532;BMP280;759;53.170;8.210;2023-01-24T07:46:21;102923.44;;;3.01
1532;BMP280;759;53.170;8.210;2023-01-24T07:48:46;102928.97;;;3.04
1532;BMP280;759;53.170;8.210;2023-01-24T07:51:11;102927.66;;;3.07
1532;BMP280;759;53.170;8.210;2023-01-24T07:53:36;102934.78;;;3.06
1532;BMP280;759;53.170;8.210;2023-01-24T07:56:02;102929.78;;;3.05
1532;BMP280;759;53.170;8.210;2023-01-24T07:58:27;102932.13;;;3.06
1532;BMP280;759;53.170;8.210;2023-01-24T08:00:53;102933.25;;;3.00
1532;BMP280;759;53.170;8.210;2023-01-24T08:03:18;102935.38;;;2.98
1532;BMP280;759;53.170;8.210;2023-01-24T08:05:44;102930.06;;;3.03
1532;BMP280;759;53.170;8.210;2023-01-24T08:08:09;102931.09;;;3.02
1532;BMP280;759;53.170;8.210;2023-01-24T08:10:34;102933.47;;;3.04
1532;BMP280;759;53.170;8.210;2023-01-24T08:13:00;102941.41;;;3.04
1532;BMP280;759;53.170;8.210;2023-01-24T08:15:25;102939.56;;;3.04
1532;BMP280;759;53.170;8.210;2023-01-24T08:17:50;102934.84;;;3.01
1532;BMP280;759;53.170;8.210;2023-01-24T08:20:16;102935.88;;;3.00
1532;BMP280;759;53.170;8.210;2023-01-24T08:22:41;102939.56;;;3.04
1532;BMP280;759;53.170;8.210;2023-01-24T08:25:07;102943.81;;;3.00
1532;BMP280;759;53.170;8.210;2023-01-24T08:27:32;102933.84;;;2.97
1532;BMP280;759;53.170;8.210;2023-01-24T08:29:58;102936.41;;;3.02
1532;BMP280;759;53.170;8.210;2023-01-24T08:32:23;102934.84;;;3.01
1532;BMP280;759;53.170;8.210;2023-01-24T08:34:49;102939.56;;;3.04
1532;BMP280;759;53.170;8.210;2023-01-24T08:37:14;102949.59;;;3.07
1532;BMP280;759;53.170;8.210;2023-01-24T08:39:40;102953.25;;;3.16
1532;BMP280;759;53.170;8.210;2023-01-24T08:42:05;102958.06;;;3.09
1532;BMP280;759;53.170;8.210;2023-01-24T08:44:31;102957.50;;;3.12
1532;BMP280;759;53.170;8.210;2023-01-24T08:46:56;102961.81;;;3.03
1532;BMP280;759;53.170;8.210;2023-01-24T08:49:21;102957.56;;;3.02
1532;BMP280;759;53.170;8.210;2023-01-24T08:51:46;102960.28;;;2.97
1532;BMP280;759;53.170;8.210;2023-01-24T08:54:12;102958.66;;;3.01
1532;BMP280;759;53.170;8.210;2023-01-24T08:56:37;102963.63;;;3.08
1532;BMP280;759;53.170;8.210;2023-01-24T08:59:03;102978.69;;;3.07
1532;BMP280;759;53.170;8.210;2023-01-24T09:01:28;102978.69;;;3.12
1532;BMP280;759;53.170;8.210;2023-01-24T09:03:53;102978.16;;;3.10
1532;BMP280;759;53.170;8.210;2023-01-24T09:06:24;102985.56;;;3.08
1532;BMP280;759;53.170;8.210;2023-01-24T09:08:51;102982.69;;;3.05
1532;BMP280;759;53.170;8.210;2023-01-24T09:11:16;102983.72;;;3.09
1532;BMP280;759;53.170;8.210;2023-01-24T09:13:41;102976.56;;;3.09
1532;BMP280;759;53.170;8.210;2023-01-24T09:16:06;102982.38;;;3.11
1532;BMP280;759;53.170;8.210;2023-01-24T09:18:31;102979.72;;;3.11
1532;BMP280;759;53.170;8.210;2023-01-24T09:21:00;102987.19;;;3.04
1532;BMP280;759;53.170;8.210;2023-01-24T09:23:26;102976.56;;;3.09
1532;BMP280;759;53.170;8.210;2023-01-24T09:25:52;102980.00;;;3.10
1532;BMP280;759;53.170;8.210;2023-01-24T09:28:17;102977.63;;;3.08
1532;BMP280;759;53.170;8.210;2023-01-24T09:30:45;102984.25;;;3.11
1532;BMP280;759;53.170;8.210;2023-01-24T09:33:11;102974.97;;;3.08
1532;BMP280;759;53.170;8.210;2023-01-24T09:35:36;102980.81;;;3.10
1532;BMP280;759;53.170;8.210;2023-01-24T09:38:01;102969.28;;;2.96
1532;BMP280;759;53.170;8.210;2023-01-24T09:40:28;102980.06;;;3.05
1532;BMP280;759;53.170;8.210;2023-01-24T09:43:14;102983.47;;;3.05
1532;BMP280;759;53.170;8.210;2023-01-24T09:45:47;102978.38;;;3.14
1532;BMP280;759;53.170;8.210;2023-01-24T09:48:14;102976.78;;;3.18
1532;BMP280;759;53.170;8.210;2023-01-24T09:50:43;102978.34;;;3.19
1532;BMP280;759;53.170;8.210;2023-01-24T09:53:44;102975.97;;;3.17
1532;BMP280;759;53.170;8.210;2023-01-24T09:56:01;102981.28;;;3.17
1532;BMP280;759;53.170;8.210;2023-01-24T09:58:32;102981.28;;;3.17
1532;BMP280;759;53.170;8.210;2023-01-24T10:01:01;102983.91;;;3.17
1532;BMP280;759;53.170;8.210;2023-01-24T10:03:26;102983.09;;;3.22
1532;BMP280;759;53.170;8.210;2023-01-24T10:05:55;102973.38;;;3.12
1532;BMP280;759;53.170;8.210;2023-01-24T10:08:32;102985.00;;;3.16
1532;BMP280;759;53.170;8.210;2023-01-24T10:16:06;102966.00;;;3.04
1532;BMP280;759;53.170;8.210;2023-01-24T10:23:43;102965.97;;;3.14
1532;BMP280;759;53.170;8.210;2023-01-24T10:28:49;102951.13;;;3.13
1532;BMP280;759;53.170;8.210;2023-01-24T10:31:33;102953.25;;;3.16
1532;BMP280;759;53.170;8.210;2023-01-24T10:34:03;102955.38;;;3.14
1532;BMP280;759;53.170;8.210;2023-01-24T10:36:36;102957.19;;;3.19
1532;BMP280;759;53.170;8.210;2023-01-24T10:39:03;102950.53;;;3.22
1532;BMP280;759;53.170;8.210;2023-01-24T10:41:29;102952.69;;;3.20
1532;BMP280;759;53.170;8.210;2023-01-24T10:43:59;102953.72;;;3.24
1532;BMP280;759;53.170;8.210;2023-01-24T10:49:29;102945.25;;;3.22
1532;BMP280;759;53.170;8.210;2023-01-24T10:52:14;102943.97;;;3.19
1532;BMP280;759;53.170;8.210;2023-01-24T10:54:47;102948.13;;;3.25
1532;BMP280;759;53.170;8.210;2023-01-24T11:00:01;102940.41;;;3.29
1532;BMP280;759;53.170;8.210;2023-01-24T11:02:29;102941.56;;;3.23
1532;BMP280;759;53.170;8.210;2023-01-24T11:04:59;102940.13;;;3.30
1532;BMP280;759;53.170;8.210;2023-01-24T11:07:26;102942.69;;;3.41
1532;BMP280;759;53.170;8.210;2023-01-24T11:09:52;102944.00;;;3.43
1532;BMP280;759;53.170;8.210;2023-01-24T11:12:17;102936.88;;;3.38
1532;BMP280;759;53.170;8.210;2023-01-24T11:14:46;102940.09;;;3.35
1532;BMP280;759;53.170;8.210;2023-01-24T11:17:27;102947.53;;;3.33
1532;BMP280;759;53.170;8.210;2023-01-24T11:19:57;102949.38;;;3.33
1532;BMP280;759;53.170;8.210;2023-01-24T11:22:27;102939.59;;;3.33
1532;BMP280;759;53.170;8.210;2023-01-24T11:24:59;102939.31;;;3.35
1532;BMP280;759;53.170;8.210;2023-01-24T11:27:25;102938.00;;;3.32
1532;BMP280;759;53.170;8.210;2023-01-24T11:30:05;102931.09;;;3.36
1532;BMP280;759;53.170;8.210;2023-01-24T11:35:03;102937.19;;;3.37
1532;BMP280;759;53.170;8.210;2023-01-24T11:37:46;102940.59;;;3.43
1532;BMP280;759;53.170;8.210;2023-01-24T11:40:18;102943.78;;;3.40
1532;BMP280;759;53.170;8.210;2023-01-24T11:55:36;102937.53;;;3.54
1532;BMP280;759;53.170;8.210;2023-01-24T12:06:08;102920.72;;;3.40
1532;BMP280;759;53.170;8.210;2023-01-24T12:16:30;102907.34;;;3.31
1532;BMP280;759;53.170;8.210;2023-01-24T12:19:06;102907.25;;;3.36
1532;BMP280;759;53.170;8.210;2023-01-24T12:21:35;102908.28;;;3.41
1532;BMP280;759;53.170;8.210;2023-01-24T12:24:08;102914.94;;;3.38
1532;BMP280;759;53.170;8.210;2023-01-24T12:26:44;102904.38;;;3.33
1532;BMP280;759;53.170;8.210;2023-01-24T12:29:15;102896.84;;;3.21
1532;BMP280;759;53.170;8.210;2023-01-24T12:31:43;102893.13;;;3.22
1532;BMP280;759;53.170;8.210;2023-01-24T12:36:56;102893.00;;;3.32
1532;BMP280;759;53.170;8.210;2023-01-24T12:39:24;102894.09;;;3.31
1532;BMP280;759;53.170;8.210;2023-01-24T12:41:55;102890.06;;;3.39
1532;BMP280;759;53.170;8.210;2023-01-24T12:44:29;102890.72;;;3.26
1532;BMP280;759;53.170;8.210;2023-01-24T12:50:16;102892.13;;;3.42
1532;BMP280;759;53.170;8.210;2023-01-24T12:55:01;102875.50;;;3.36
1532;BMP280;759;53.170;8.210;2023-01-24T12:57:29;102881.13;;;3.30
1532;BMP280;759;53.170;8.210;2023-01-24T12:59:55;102877.78;;;3.24
1532;BMP280;759;53.170;8.210;2023-01-24T13:05:14;102877.50;;;3.26
1532;BMP280;759;53.170;8.210;2023-01-24T13:08:03;102869.47;;;3.31
1532;BMP280;759;53.170;8.210;2023-01-24T13:10:37;102868.91;;;3.34
1532;BMP280;759;53.170;8.210;2023-01-24T13:13:07;102871.41;;;3.25
1532;BMP280;759;53.170;8.210;2023-01-24T13:15:48;102874.25;;;3.29
1532;BMP280;759;53.170;8.210;2023-01-24T13:23:35;102872.22;;;3.26
1532;BMP280;759;53.170;8.210;2023-01-24T13:26:26;102869.75;;;3.00
1532;BMP280;759;53.170;8.210;2023-01-24T13:31:18;102865.50;;;3.04
1532;BMP280;759;53.170;8.210;2023-01-24T13:33:47;102862.03;;;3.09
1532;BMP280;759;53.170;8.210;2023-01-24T13:36:33;102865.97;;;3.11
1532;BMP280;759;53.170;8.210;2023-01-24T13:38:59;102849.56;;;3.14
1532;BMP280;759;53.170;8.210;2023-01-24T13:43:54;102853.81;;;3.10
1532;BMP280;759;53.170;8.210;2023-01-24T13:49:09;102855.16;;;3.08
1532;BMP280;759;53.170;8.210;2023-01-24T13:51:47;102858.13;;;3.01
1532;BMP280;759;53.170;8.210;2023-01-24T13:59:42;102858.63;;;3.03
1532;BMP280;759;53.170;8.210;2023-01-24T14:04:48;102856.09;;;2.93
1532;BMP280;759;53.170;8.210;2023-01-24T14:07:17;102841.84;;;2.89
1532;BMP280;759;53.170;8.210;2023-01-24T14:09:43;102842.44;;;2.81
1532;BMP280;759;53.170;8.210;2023-01-24T14:12:12;102844.25;;;2.85
1532;BMP280;759;53.170;8.210;2023-01-24T14:14:59;102844.06;;;2.76
1532;BMP280;759;53.170;8.210;2023-01-24T14:17:26;102840.06;;;2.79
1532;BMP280;759;53.170;8.210;2023-01-24T14:19:51;102840.91;;;2.74
1532;BMP280;759;53.170;8.210;2023-01-24T14:22:19;102843.50;;;2.80
1532;BMP280;759;53.170;8.210;2023-01-24T14:27:16;102848.25;;;2.77
1532;BMP280;759;53.170;8.210;2023-01-24T14:29:43;102842.72;;;2.79
1532;BMP280;759;53.170;8.210;2023-01-24T14:32:18;102855.06;;;2.89
1532;BMP280;759;53.170;8.210;2023-01-24T14:34:44;102844.00;;;2.82
1532;BMP280;759;53.170;8.210;2023-01-24T14:37:12;102839.19;;;2.89
1532;BMP280;759;53.170;8.210;2023-01-24T14:39:41;102850.84;;;2.88
1532;BMP280;759;53.170;8.210;2023-01-24T14:42:07;102840.34;;;2.77
1532;BMP280;759;53.170;8.210;2023-01-24T14:44:37;102840.34;;;2.77
1532;BMP280;759;53.170;8.210;2023-01-24T14:47:12;102845.16;;;2.70
1532;BMP280;759;53.170;8.210;2023-01-24T14:49:42;102838.06;;;2.66
1532;BMP280;759;53.170;8.210;2023-01-24T14:52:18;102838.28;;;2.69
1532;BMP280;759;53.170;8.210;2023-01-24T14:54:46;102835.25;;;2.57
1532;BMP280;759;53.170;8.210;2023-01-24T14:57:18;102831.50;;;2.58
1532;BMP280;759;53.170;8.210;2023-01-24T14:59:43;102838.84;;;2.66
1532;BMP280;759;53.170;8.210;2023-01-24T15:02:15;102832.53;;;2.62
1532;BMP280;759;53.170;8.210;2023-01-24T15:04:43;102838.56;;;2.68
1532;BMP280;759;53.170;8.210;2023-01-24T15:07:13;102842.34;;;2.62
1532;BMP280;759;53.170;8.210;2023-01-24T15:09:39;102835.00;;;2.53
1532;BMP280;759;53.170;8.210;2023-01-24T15:14:40;102850.03;;;2.53
1532;BMP280;759;53.170;8.210;2023-01-24T15:17:14;102847.91;;;2.55
1532;BMP280;759;53.170;8.210;2023-01-24T15:19:44;102843.97;;;2.52
1532;BMP280;759;53.170;8.210;2023-01-24T15:22:13;102843.72;;;2.49
1532;BMP280;759;53.170;8.210;2023-01-24T15:24:41;102842.16;;;2.48
1532;BMP280;759;53.170;8.210;2023-01-24T15:27:20;102837.13;;;2.51
1532;BMP280;759;53.170;8.210;2023-01-24T15:29:46;102833.16;;;2.49
1532;BMP280;759;53.170;8.210;2023-01-24T15:32:22;102832.63;;;2.47
1532;BMP280;759;53.170;8.210;2023-01-24T15:34:50;102827.38;;;2.42
1532;BMP280;759;53.170;8.210;2023-01-24T15:37:16;102825.56;;;2.37
1532;BMP280;759;53.170;8.210;2023-01-24T15:39:41;102826.31;;;2.43
1532;BMP280;759;53.170;8.210;2023-01-24T15:42:16;102814.81;;;2.28
1532;BMP280;759;53.170;8.210;2023-01-24T15:45:01;102815.03;;;2.32
1532;BMP280;759;53.170;8.210;2023-01-24T15:47:26;102812.16;;;2.28
1532;BMP280;759;53.170;8.210;2023-01-24T15:50:17;102808.97;;;2.31
1532;BMP280;759;53.170;8.210;2023-01-24T15:53:21;102808.47;;;2.29
1532;BMP280;759;53.170;8.210;2023-01-24T15:55:47;102808.72;;;2.28
1532;BMP280;759;53.170;8.210;2023-01-24T15:58:12;102805.31;;;2.27
1532;BMP280;759;53.170;8.210;2023-01-24T16:00:37;102810.53;;;2.32
1532;BMP280;759;53.170;8.210;2023-01-24T16:03:02;102803.69;;;2.31
1532;BMP280;759;53.170;8.210;2023-01-24T16:05:28;102807.91;;;2.32
1532;BMP280;759;53.170;8.210;2023-01-24T16:07:54;102813.75;;;2.29
1532;BMP280;759;53.170;8.210;2023-01-24T16:10:19;102809.00;;;2.26
1532;BMP280;759;53.170;8.210;2023-01-24T16:12:45;102802.19;;;2.20
1532;BMP280;759;53.170;8.210;2023-01-24T16:15:20;102809.59;;;2.18
1532;BMP280;759;53.170;8.210;2023-01-24T16:17:46;102808.53;;;2.19
1532;BMP280;759;53.170;8.210;2023-01-24T16:20:21;102821.44;;;2.26
1532;BMP280;759;53.170;8.210;2023-01-24T16:22:47;102812.22;;;2.18
1532;BMP280;759;53.170;8.210;2023-01-24T16:25:12;102811.19;;;2.19
1532;BMP280;759;53.170;8.210;2023-01-24T16:27:37;102804.06;;;2.09
1532;BMP280;759;53.170;8.210;2023-01-24T16:30:04;102807.53;;;2.10